createdAt,value
2023-10-20T04:02:34.889Z,13.92
2023-10-20T04:05:01.595Z,13.90
2023-10-20T04:07:28.218Z,13.88
2023-10-20T04:09:54.842Z,13.86
2023-10-20T04:12:21.435Z,13.88
2023-10-20T04:14:48.052Z,13.88
2023-10-20T04:17:17.282Z,13.89
2023-10-20T04:19:43.920Z,13.85
2023-10-20T04:22:14.291Z,13.89
2023-10-20T04:24:42.464Z,13.83
2023-10-20T04:27:22.625Z,13.88
2023-10-20T04:30:08.109Z,13.88
2023-10-20T04:32:53.458Z,13.85
2023-10-20T04:35:38.799Z,13.85
2023-10-20T04:38:23.768Z,13.85
2023-10-20T04:41:08.948Z,13.82
2023-10-20T04:43:46.404Z,13.86
2023-10-20T04:46:36.780Z,13.86
2023-10-20T04:49:12.209Z,13.79
2023-10-20T04:51:57.501Z,13.75
2023-10-20T04:54:24.497Z,13.72
2023-10-20T04:57:09.399Z,13.71
2023-10-20T04:59:36.020Z,13.72
2023-10-20T05:02:14.966Z,13.68
2023-10-20T05:04:47.224Z,13.62
2023-10-20T05:07:14.090Z,13.53
2023-10-20T05:09:45.020Z,13.48
2023-10-20T05:12:11.864Z,13.41
2023-10-20T05:14:38.468Z,13.40
2023-10-20T05:17:06.940Z,13.41
2023-10-20T05:19:37.100Z,13.34
2023-10-20T05:22:03.708Z,13.28
2023-10-20T05:24:30.315Z,13.27
2023-10-20T05:26:56.964Z,13.21
2023-10-20T05:29:23.709Z,13.23
2023-10-20T05:31:50.547Z,13.14
2023-10-20T05:34:17.221Z,13.16
2023-10-20T05:36:45.550Z,13.06
2023-10-20T05:39:15.237Z,13.07
2023-10-20T05:41:42.657Z,13.03
2023-10-20T05:44:13.298Z,12.99
2023-10-20T05:46:41.714Z,12.97
2023-10-20T05:49:09.835Z,12.95
2023-10-20T05:51:36.579Z,12.89
2023-10-20T05:54:04.696Z,12.90
2023-10-20T05:56:31.492Z,12.89
2023-10-20T05:58:58.497Z,12.88
2023-10-20T06:01:25.096Z,12.88
2023-10-20T06:03:53.148Z,12.83
2023-10-20T06:06:19.842Z,12.83
2023-10-20T06:08:46.503Z,12.80
2023-10-20T06:11:13.540Z,12.75
2023-10-20T06:13:40.223Z,12.75
2023-10-20T06:16:12.263Z,12.70
2023-10-20T06:18:41.296Z,12.70
2023-10-20T06:21:15.828Z,12.70
2023-10-20T06:23:42.767Z,12.68
2023-10-20T06:26:09.882Z,12.65
2023-10-20T06:28:36.634Z,12.69
2023-10-20T06:31:24.095Z,12.65
2023-10-20T06:33:59.536Z,12.61
2023-10-20T06:36:27.560Z,12.62
2023-10-20T06:38:54.658Z,12.55
2023-10-20T06:41:21.761Z,12.58
2023-10-20T06:43:48.725Z,12.56
2023-10-20T06:46:15.838Z,12.55
2023-10-20T06:48:42.526Z,12.56
2023-10-20T06:51:09.211Z,12.55
2023-10-20T06:53:36.691Z,12.46
2023-10-20T06:56:15.575Z,12.51
2023-10-20T06:58:44.528Z,12.48
2023-10-20T07:01:11.411Z,12.48
2023-10-20T07:03:38.323Z,12.48
2023-10-20T07:06:08.493Z,12.45
2023-10-20T07:08:35.479Z,12.42
2023-10-20T07:11:05.311Z,12.46
2023-10-20T07:13:33.334Z,12.46
2023-10-20T07:16:04.281Z,12.44
2023-10-20T07:18:30.902Z,12.41
2023-10-20T07:20:58.854Z,12.38
2023-10-20T07:23:27.132Z,12.38
2023-10-20T07:25:54.467Z,12.34
2023-10-20T07:28:21.661Z,12.30
2023-10-20T07:30:48.459Z,12.30
2023-10-20T07:33:15.570Z,12.31
2023-10-20T07:35:43.776Z,12.30
2023-10-20T07:38:10.537Z,12.31
2023-10-20T07:40:38.839Z,12.27
2023-10-20T07:43:07.526Z,12.20
2023-10-20T07:45:44.379Z,12.14
2023-10-20T07:48:12.194Z,12.14
2023-10-20T07:50:40.357Z,12.07
2023-10-20T07:53:08.865Z,12.08
2023-10-20T07:55:35.464Z,12.08
2023-10-20T07:58:02.105Z,12.01
2023-10-20T08:00:31.713Z,12.04
2023-10-20T08:02:58.954Z,11.98
2023-10-20T08:05:27.086Z,11.94
2023-10-20T08:07:54.736Z,11.94
2023-10-20T08:10:23.041Z,11.93
2023-10-20T08:12:50.282Z,11.93
2023-10-20T08:15:17.923Z,11.93
2023-10-20T08:17:46.793Z,11.86
2023-10-20T08:20:14.265Z,11.83
2023-10-20T08:22:41.660Z,11.87
2023-10-20T08:25:10.390Z,11.82
2023-10-20T08:27:37.913Z,11.83
2023-10-20T08:30:06.502Z,11.83
2023-10-20T08:32:33.238Z,11.82
2023-10-20T08:35:00.270Z,11.82
2023-10-20T08:37:27.772Z,11.82
2023-10-20T08:39:55.654Z,11.73
2023-10-20T08:42:25.462Z,11.70
2023-10-20T08:44:52.757Z,11.73
2023-10-20T08:47:25.343Z,11.62
2023-10-20T08:49:54.744Z,11.63
2023-10-20T08:52:22.132Z,11.62
2023-10-20T08:54:49.378Z,11.62
2023-10-20T08:57:16.823Z,11.65
2023-10-20T08:59:53.132Z,11.59
2023-10-20T09:02:21.276Z,11.58
2023-10-20T09:04:53.862Z,11.56
2023-10-20T09:07:22.989Z,11.52
2023-10-20T09:09:50.640Z,11.45
2023-10-20T09:12:17.252Z,11.42
2023-10-20T09:14:43.941Z,11.40
2023-10-20T09:17:21.623Z,11.36
2023-10-20T09:19:48.720Z,11.34
2023-10-20T09:22:15.299Z,11.29
2023-10-20T09:24:42.322Z,11.35
2023-10-20T09:27:09.221Z,11.35
2023-10-20T09:29:38.482Z,11.35
2023-10-20T09:32:06.392Z,11.31
2023-10-20T09:34:33.023Z,11.26
2023-10-20T09:37:01.517Z,11.26
2023-10-20T09:39:49.726Z,11.31
2023-10-20T09:42:23.754Z,11.24
2023-10-20T09:45:14.273Z,11.26
2023-10-20T09:47:44.783Z,11.25
2023-10-20T09:50:15.825Z,11.28
2023-10-20T09:52:43.076Z,11.32
2023-10-20T09:55:14.796Z,11.22
2023-10-20T09:57:42.028Z,11.29
2023-10-20T10:00:09.983Z,11.32
2023-10-20T10:02:36.869Z,11.25
2023-10-20T10:05:04.254Z,11.25
2023-10-20T10:07:34.139Z,11.29
2023-10-20T10:10:01.804Z,11.32
2023-10-20T10:12:29.831Z,11.25
2023-10-20T10:14:59.277Z,11.40
2023-10-20T10:17:29.809Z,11.34
2023-10-20T10:19:57.466Z,11.35
2023-10-20T10:22:28.746Z,11.35
2023-10-20T10:24:57.273Z,11.34
2023-10-20T10:27:29.025Z,11.34
2023-10-20T10:30:02.573Z,11.24
2023-10-20T10:32:35.453Z,11.26
2023-10-20T10:35:05.329Z,11.26
2023-10-20T10:37:37.167Z,11.28
2023-10-20T10:40:10.953Z,11.32
2023-10-20T10:42:49.006Z,11.21
2023-10-20T10:45:25.785Z,11.21
2023-10-20T10:48:07.582Z,11.22
2023-10-20T10:50:37.812Z,11.31
2023-10-20T10:53:04.840Z,11.26
2023-10-20T10:55:32.519Z,11.28
2023-10-20T10:57:59.362Z,11.22
2023-10-20T11:00:26.617Z,11.25
2023-10-20T11:02:54.773Z,11.26
2023-10-20T11:05:22.118Z,11.24
2023-10-20T11:08:00.981Z,11.22
2023-10-20T11:10:28.430Z,11.28
2023-10-20T11:12:58.652Z,11.26
2023-10-20T11:15:32.222Z,11.31
2023-10-20T11:18:01.526Z,11.32
2023-10-20T11:20:30.891Z,11.32
2023-10-20T11:22:59.050Z,11.32
2023-10-20T11:25:25.890Z,11.32
2023-10-20T11:27:57.906Z,11.32
2023-10-20T11:30:29.705Z,11.35
2023-10-20T11:32:56.831Z,11.31
2023-10-20T11:35:26.167Z,11.29
2023-10-20T11:37:57.024Z,11.32
2023-10-20T11:40:24.719Z,11.32
2023-10-20T11:42:52.407Z,11.32
2023-10-20T11:45:19.746Z,11.35
2023-10-20T11:47:47.146Z,11.42
2023-10-20T11:50:17.712Z,11.46
2023-10-20T11:52:44.377Z,11.55
2023-10-20T11:55:13.380Z,11.55
2023-10-20T11:57:40.510Z,11.55
2023-10-20T12:00:09.011Z,11.52
2023-10-20T12:02:35.869Z,11.55
2023-10-20T12:05:02.853Z,11.61
2023-10-20T12:07:29.616Z,11.65
2023-10-20T12:09:56.246Z,11.66
2023-10-20T12:12:23.853Z,11.73
2023-10-20T12:14:50.541Z,11.69
2023-10-20T12:17:17.385Z,11.73
2023-10-20T12:19:44.232Z,11.74
2023-10-20T12:22:10.840Z,11.72
2023-10-20T12:24:37.894Z,11.74
2023-10-20T12:27:04.895Z,11.82
2023-10-20T12:29:34.522Z,11.76
2023-10-20T12:32:01.584Z,11.77
2023-10-20T12:34:28.975Z,11.77
2023-10-20T12:36:55.726Z,11.82
2023-10-20T12:39:22.444Z,11.82
2023-10-20T12:41:50.672Z,11.82
2023-10-20T12:44:19.909Z,11.80
2023-10-20T12:46:46.663Z,11.86
2023-10-20T12:49:15.188Z,11.83
2023-10-20T12:51:42.811Z,11.80
2023-10-20T12:54:09.364Z,11.89
2023-10-20T12:56:36.492Z,11.84
2023-10-20T12:59:03.187Z,11.87
2023-10-20T13:01:29.848Z,11.94
2023-10-20T13:03:56.729Z,12.08
2023-10-20T13:06:23.416Z,12.01
2023-10-20T13:08:52.394Z,12.04
2023-10-20T13:11:20.172Z,12.10
2023-10-20T13:13:47.760Z,12.05
2023-10-20T13:16:14.315Z,12.13
2023-10-20T13:18:41.466Z,12.07
2023-10-20T13:21:08.088Z,12.11
2023-10-20T13:23:35.213Z,12.13
2023-10-20T13:26:08.143Z,12.11
2023-10-20T13:28:44.390Z,12.14
2023-10-20T13:31:12.965Z,12.18
2023-10-20T13:33:41.111Z,12.18
2023-10-20T13:36:09.365Z,12.16
2023-10-20T13:38:39.034Z,12.24
2023-10-20T13:41:06.711Z,12.27
2023-10-20T13:43:33.835Z,12.35
2023-10-20T13:46:00.815Z,12.44
2023-10-20T13:48:27.623Z,12.49
2023-10-20T13:50:54.543Z,12.51
2023-10-20T13:53:21.602Z,12.51
2023-10-20T13:55:48.875Z,12.53
2023-10-20T13:58:15.836Z,12.56
2023-10-20T14:00:42.791Z,12.59
2023-10-20T14:03:09.581Z,12.66
2023-10-20T14:05:36.750Z,12.63
2023-10-20T14:08:14.406Z,12.69
2023-10-20T14:10:41.102Z,12.65
2023-10-20T14:13:07.661Z,12.56
2023-10-20T14:15:34.375Z,12.59
2023-10-20T14:18:01.010Z,12.61
2023-10-20T14:20:27.676Z,12.66
2023-10-20T14:22:54.416Z,12.69
2023-10-20T14:25:21.251Z,12.80
2023-10-20T14:27:47.906Z,12.80
2023-10-20T14:30:14.660Z,12.79
2023-10-20T14:32:41.597Z,12.85
2023-10-20T14:35:08.742Z,12.86
2023-10-20T14:37:35.597Z,12.92
2023-10-20T14:40:02.321Z,12.96
2023-10-20T14:42:28.902Z,12.99
2023-10-20T14:44:55.858Z,12.99
2023-10-20T14:47:22.776Z,13.02
2023-10-20T14:49:49.473Z,13.00
2023-10-20T14:52:17.418Z,12.97
2023-10-20T14:54:44.822Z,13.00
2023-10-20T14:57:13.068Z,13.06
2023-10-20T14:59:40.459Z,13.06
2023-10-20T15:02:07.014Z,13.04
2023-10-20T15:04:34.156Z,13.07
2023-10-20T15:07:01.127Z,13.11
2023-10-20T15:09:28.222Z,13.17
2023-10-20T15:11:55.448Z,13.24
2023-10-20T15:14:22.363Z,13.27
2023-10-20T15:16:49.118Z,13.24
2023-10-20T15:19:15.738Z,13.33
2023-10-20T15:21:42.407Z,13.36
2023-10-20T15:24:10.996Z,13.33
2023-10-20T15:26:38.265Z,13.34
2023-10-20T15:29:05.129Z,13.40
2023-10-20T15:31:32.497Z,13.43
2023-10-20T15:33:59.725Z,13.46
2023-10-20T15:36:28.944Z,13.53
2023-10-20T15:38:55.774Z,13.64
2023-10-20T15:41:23.136Z,13.61
2023-10-20T15:43:50.364Z,13.81
2023-10-20T15:46:16.996Z,13.86
2023-10-20T15:48:43.795Z,13.90
2023-10-20T15:51:10.772Z,13.98
2023-10-20T15:53:37.530Z,14.08
2023-10-20T15:56:04.964Z,14.01
2023-10-20T15:58:32.419Z,14.04
2023-10-20T16:01:00.809Z,14.08
2023-10-20T16:03:27.981Z,14.06
2023-10-20T16:05:54.954Z,14.05
2023-10-20T16:08:22.156Z,14.10
2023-10-20T16:10:49.785Z,14.12
2023-10-20T16:13:16.421Z,14.08
2023-10-20T16:15:43.029Z,14.04
2023-10-20T16:18:09.799Z,14.05
2023-10-20T16:20:36.636Z,14.10
2023-10-20T16:23:04.040Z,14.16
2023-10-20T16:25:30.833Z,14.17
2023-10-20T16:27:59.288Z,14.17
2023-10-20T16:30:26.557Z,14.10
2023-10-20T16:32:53.217Z,14.12
2023-10-20T16:35:19.845Z,14.12
2023-10-20T16:37:46.591Z,14.09
2023-10-20T16:40:13.963Z,14.06
2023-10-20T16:42:40.605Z,14.13
2023-10-20T16:45:11.190Z,14.01
2023-10-20T16:47:39.472Z,14.05
2023-10-20T16:50:07.216Z,14.15
2023-10-20T16:52:36.534Z,14.08
2023-10-20T16:55:03.285Z,14.05
2023-10-20T16:57:30.015Z,14.06
2023-10-20T16:59:56.784Z,14.12
2023-10-20T17:02:23.406Z,14.01
2023-10-20T17:04:50.038Z,14.05
2023-10-20T17:07:16.845Z,14.08
2023-10-20T17:09:43.425Z,14.08
2023-10-20T17:12:10.199Z,14.08
2023-10-20T17:14:36.882Z,14.08
2023-10-20T17:17:03.641Z,14.12
2023-10-20T17:19:30.320Z,14.05
2023-10-20T17:21:56.921Z,14.01
2023-10-20T17:24:23.592Z,14.12
2023-10-20T17:26:50.663Z,14.08
2023-10-20T17:29:17.366Z,14.10
2023-10-20T17:31:44.018Z,14.17
2023-10-20T17:34:10.769Z,14.13
2023-10-20T17:36:37.480Z,14.12
2023-10-20T17:39:07.369Z,14.10
2023-10-20T17:41:35.529Z,14.12
2023-10-20T17:44:02.265Z,14.19
2023-10-20T17:46:29.263Z,14.20
2023-10-20T17:48:55.943Z,14.17
2023-10-20T17:51:23.646Z,14.16
2023-10-20T17:53:50.403Z,14.22
2023-10-20T17:56:17.132Z,14.25
2023-10-20T17:58:43.734Z,14.17
2023-10-20T18:01:11.932Z,14.25
2023-10-20T18:03:44.018Z,14.23
2023-10-20T18:06:16.866Z,14.19
2023-10-20T18:08:50.908Z,14.15
2023-10-20T18:11:20.598Z,14.15
2023-10-20T18:13:48.218Z,14.15
2023-10-20T18:16:16.577Z,14.15
2023-10-20T18:18:45.495Z,14.16
2023-10-20T18:21:13.330Z,14.17
2023-10-20T18:23:43.426Z,14.16
2023-10-20T18:26:10.307Z,14.22
2023-10-20T18:28:37.042Z,14.10
2023-10-20T18:31:17.576Z,14.15
2023-10-20T18:33:46.398Z,14.12
2023-10-20T18:36:13.031Z,14.13
2023-10-20T18:38:39.883Z,14.17
2023-10-20T18:41:14.624Z,14.19
2023-10-20T18:43:41.231Z,14.15
2023-10-20T18:46:07.832Z,14.16
2023-10-20T18:48:34.569Z,14.10
2023-10-20T18:51:08.834Z,14.12
2023-10-20T18:53:36.173Z,14.15
2023-10-20T18:56:03.008Z,14.06
2023-10-20T18:58:30.304Z,14.05
2023-10-20T19:00:57.999Z,14.04
2023-10-20T19:03:27.180Z,13.98
2023-10-20T19:05:54.007Z,14.02
2023-10-20T19:08:36.351Z,14.02
2023-10-20T19:11:05.948Z,13.89
2023-10-20T19:13:34.777Z,13.90
2023-10-20T19:16:02.144Z,13.88
2023-10-20T19:18:29.810Z,13.89
2023-10-20T19:21:00.969Z,13.81
2023-10-20T19:23:27.785Z,13.81
2023-10-20T19:26:11.961Z,13.81
2023-10-20T19:28:41.864Z,13.76
2023-10-20T19:31:09.244Z,13.67
2023-10-20T19:33:37.088Z,13.69
2023-10-20T19:36:06.479Z,13.75
2023-10-20T19:38:33.624Z,13.76
2023-10-20T19:41:00.362Z,13.74
2023-10-20T19:43:27.364Z,13.78
2023-10-20T19:45:54.290Z,13.78
2023-10-20T19:48:21.776Z,13.89
2023-10-20T19:50:48.500Z,13.83
2023-10-20T19:53:15.178Z,13.82
2023-10-20T19:55:43.934Z,13.85
2023-10-20T19:58:10.670Z,13.79
2023-10-20T20:00:37.362Z,13.85
2023-10-20T20:03:04.547Z,13.78
2023-10-20T20:05:31.353Z,13.82
2023-10-20T20:07:58.179Z,13.75
2023-10-20T20:10:25.673Z,13.75
2023-10-20T20:12:52.251Z,13.72
2023-10-20T20:15:19.143Z,13.72
2023-10-20T20:17:46.335Z,13.67
2023-10-20T20:20:13.410Z,13.72
2023-10-20T20:22:39.985Z,13.68
2023-10-20T20:25:06.895Z,13.64
2023-10-20T20:27:33.639Z,13.64
2023-10-20T20:30:00.295Z,13.61
2023-10-20T20:32:27.001Z,13.59
2023-10-20T20:34:53.712Z,13.58
2023-10-20T20:37:20.361Z,13.59
2023-10-20T20:39:47.263Z,13.57
2023-10-20T20:42:13.898Z,13.47
2023-10-20T20:44:40.591Z,13.47
2023-10-20T20:47:07.391Z,13.47
2023-10-20T20:49:35.614Z,13.47
2023-10-20T20:52:02.538Z,13.46
2023-10-20T20:54:29.225Z,13.47
2023-10-20T20:56:55.834Z,13.53
2023-10-20T20:59:22.424Z,13.37
2023-10-20T21:01:49.254Z,13.31
2023-10-20T21:04:16.095Z,13.38
2023-10-20T21:06:42.829Z,13.28
2023-10-20T21:09:10.618Z,13.30
2023-10-20T21:11:37.648Z,13.31
2023-10-20T21:14:04.325Z,13.21
2023-10-20T21:16:32.033Z,13.16
2023-10-20T21:19:01.493Z,13.21
2023-10-20T21:21:28.306Z,13.17
2023-10-20T21:23:55.673Z,13.21
2023-10-20T21:26:22.874Z,13.19
2023-10-20T21:28:49.651Z,13.14
2023-10-20T21:31:16.365Z,13.06
2023-10-20T21:33:43.072Z,13.10
2023-10-20T21:36:15.186Z,13.10
2023-10-20T21:38:42.088Z,13.09
2023-10-20T21:41:08.781Z,13.06
2023-10-20T21:43:35.481Z,13.02
2023-10-20T21:46:02.163Z,13.03
2023-10-20T21:48:28.965Z,13.00
2023-10-20T21:51:03.340Z,13.11
2023-10-20T21:53:33.100Z,13.14
2023-10-20T21:56:06.686Z,13.03
2023-10-20T21:58:33.825Z,13.09
2023-10-20T22:01:00.734Z,13.07
2023-10-20T22:03:28.423Z,13.06
2023-10-20T22:05:55.376Z,12.97
2023-10-20T22:08:22.977Z,12.97
2023-10-20T22:10:50.370Z,13.02
2023-10-20T22:13:17.564Z,13.07
2023-10-20T22:15:44.157Z,13.11
2023-10-20T22:18:12.115Z,13.03
2023-10-20T22:20:39.196Z,13.06
2023-10-20T22:23:05.995Z,13.02
2023-10-20T22:25:32.768Z,13.06
2023-10-20T22:27:59.391Z,13.07
2023-10-20T22:30:26.654Z,13.14
2023-10-20T22:32:53.436Z,13.14
2023-10-20T22:35:21.386Z,13.24
2023-10-20T22:37:49.567Z,13.11
2023-10-20T22:40:16.587Z,13.07
2023-10-20T22:42:43.461Z,13.09
2023-10-20T22:45:10.230Z,13.06
2023-10-20T22:47:37.054Z,13.06
2023-10-20T22:50:08.176Z,13.00
2023-10-20T22:52:36.574Z,12.99
2023-10-20T22:55:05.210Z,13.00
2023-10-20T22:57:33.107Z,13.03
2023-10-20T23:00:00.213Z,12.97
2023-10-20T23:02:27.154Z,12.90
2023-10-20T23:04:53.778Z,12.90
2023-10-20T23:07:20.440Z,12.85
2023-10-20T23:09:47.237Z,12.88
2023-10-20T23:12:13.875Z,12.88
2023-10-20T23:14:40.592Z,12.86
2023-10-20T23:17:07.629Z,12.85
2023-10-20T23:19:34.974Z,12.80
2023-10-20T23:22:01.766Z,12.76
2023-10-20T23:24:28.623Z,12.73
2023-10-20T23:26:55.244Z,12.79
2023-10-20T23:29:24.350Z,12.72
